Time;durP1;ratioP1;P1;durP2;ratioP2;P2;SDS_P1;SDS_P2;PMS_P1;PMS_P2;Temp;Humidity;BMP_temperature;BMP_pressure;BME280_temperature;BME280_humidity;BME280_pressure;Samples;Min_cycle;Max_cycle;Signal;HPM_P1;HPM_P2
2021/01/31 00:00:51;;;;;;;23.00;11.43;;;2.50;71.50;;;;;;5029151;28;20037;-68
2021/01/31 00:03:23;;;;;;;26.37;13.83;;;2.50;71.50;;;;;;5019843;28;20060;-72
2021/01/31 00:05:51;;;;;;;23.60;12.37;;;2.50;71.40;;;;;;5036970;28;20029;-67
2021/01/31 00:08:18;;;;;;;24.67;13.70;;;2.50;71.40;;;;;;5035011;28;20495;-75
2021/01/31 00:10:44;;;;;;;21.77;11.93;;;2.60;71.30;;;;;;5033697;28;20029;-68
2021/01/31 00:13:10;;;;;;;22.73;12.77;;;2.60;71.20;;;;;;5030985;28;20053;-69
2021/01/31 00:15:43;;;;;;;25.00;12.40;;;2.50;71.30;;;;;;5010822;28;20152;-72
2021/01/31 00:18:10;;;;;;;20.67;10.87;;;2.50;71.20;;;;;;5032605;28;20075;-68
2021/01/31 00:20:37;;;;;;;25.60;13.57;;;2.50;71.30;;;;;;5033281;28;20029;-70
2021/01/31 00:23:04;;;;;;;22.43;11.57;;;2.50;71.20;;;;;;5036917;28;20025;-66
2021/01/31 00:25:30;;;;;;;23.97;13.97;;;2.50;71.10;;;;;;5017188;28;20117;-66
2021/01/31 00:27:56;;;;;;;29.23;13.93;;;2.50;71.20;;;;;;5035512;28;20485;-70
2021/01/31 00:30:30;;;;;;;23.27;12.33;;;2.50;71.20;;;;;;5031279;28;20045;-66
2021/01/31 00:32:56;;;;;;;24.35;13.68;;;2.40;71.30;;;;;;5040975;28;20112;-66
2021/01/31 00:35:24;;;;;;;21.50;11.23;;;2.40;71.50;;;;;;5030185;28;20073;-67
2021/01/31 00:37:49;;;;;;;21.27;11.57;;;2.40;71.50;;;;;;5035815;28;20386;-67
2021/01/31 00:40:15;;;;;;;25.80;14.20;;;2.40;71.60;;;;;;5031656;28;20041;-66
2021/01/31 00:42:41;;;;;;;21.97;12.30;;;2.40;71.60;;;;;;5035475;28;20033;-66
2021/01/31 00:45:10;;;;;;;21.30;10.83;;;2.40;71.60;;;;;;5018601;28;20037;-68
2021/01/31 00:47:36;;;;;;;23.40;11.83;;;2.30;71.60;;;;;;5032649;28;20025;-67
2021/01/31 00:50:01;;;;;;;22.37;11.30;;;2.30;71.50;;;;;;5050542;28;20557;-66
2021/01/31 00:52:27;;;;;;;28.37;12.87;;;2.30;71.60;;;;;;5020437;28;20033;-67
2021/01/31 00:54:52;;;;;;;24.37;13.37;;;2.30;71.60;;;;;;5011565;28;20044;-66
2021/01/31 00:57:18;;;;;;;25.80;13.67;;;2.30;71.60;;;;;;5034161;28;20057;-67
2021/01/31 00:59:44;;;;;;;25.30;13.20;;;2.30;71.50;;;;;;5023693;28;20036;-67
2021/01/31 01:02:16;;;;;;;22.43;11.13;;;2.30;71.60;;;;;;5041183;28;20036;-66
2021/01/31 01:04:45;;;;;;;25.60;13.20;;;2.30;71.70;;;;;;5034480;28;20120;-67
2021/01/31 01:07:11;;;;;;;24.80;13.70;;;2.30;71.70;;;;;;5040150;28;20391;-66
2021/01/31 01:09:37;;;;;;;24.67;12.90;;;2.20;71.70;;;;;;5048295;28;20037;-68
2021/01/31 01:12:03;;;;;;;25.93;13.43;;;2.20;71.80;;;;;;5014407;28;20479;-66
2021/01/31 01:14:30;;;;;;;25.97;13.47;;;2.20;72.00;;;;;;5029217;28;20175;-68
2021/01/31 01:17:00;;;;;;;23.40;12.73;;;2.10;72.10;;;;;;5046258;28;20366;-66
2021/01/31 01:19:27;;;;;;;23.57;12.13;;;2.20;72.20;;;;;;5033815;28;20033;-67
2021/01/31 01:21:53;;;;;;;27.40;13.83;;;2.20;72.00;;;;;;5049298;28;20222;-67
2021/01/31 01:24:19;;;;;;;26.87;14.33;;;2.20;72.10;;;;;;5029438;28;20200;-66
2021/01/31 01:26:45;;;;;;;24.60;12.70;;;2.10;72.10;;;;;;5045885;28;20470;-67
2021/01/31 01:29:11;;;;;;;25.70;15.17;;;2.10;72.20;;;;;;5037148;28;20040;-67
2021/01/31 01:31:37;;;;;;;25.57;12.57;;;2.10;72.20;;;;;;5014033;28;20117;-66
2021/01/31 01:34:04;;;;;;;27.03;14.40;;;2.10;72.20;;;;;;5016420;28;20548;-67
2021/01/31 01:36:30;;;;;;;25.10;12.60;;;2.10;72.30;;;;;;5034085;28;20144;-66
2021/01/31 01:38:55;;;;;;;23.33;14.70;;;2.20;72.20;;;;;;5043004;28;20174;-66
2021/01/31 01:41:21;;;;;;;23.57;13.13;;;2.20;72.10;;;;;;5029633;28;20041;-76
2021/01/31 01:43:51;;;;;;;22.37;12.60;;;2.10;72.10;;;;;;5036223;28;20463;-67
2021/01/31 01:46:19;;;;;;;22.47;13.03;;;2.10;72.20;;;;;;5013305;28;20033;-66
2021/01/31 01:48:59;;;;;;;23.17;12.17;;;2.10;72.30;;;;;;5042061;28;20047;-67
2021/01/31 01:51:49;;;;;;;22.27;12.93;;;2.10;72.20;;;;;;5045195;28;20029;-67
2021/01/31 01:54:24;;;;;;;22.77;11.77;;;2.10;72.20;;;;;;5030536;28;20501;-66
2021/01/31 01:56:58;;;;;;;21.17;12.67;;;2.10;72.10;;;;;;5042640;28;20039;-68
2021/01/31 01:59:24;;;;;;;21.80;11.67;;;2.10;72.10;;;;;;5037564;28;20041;-67
2021/01/31 02:02:05;;;;;;;22.77;12.37;;;2.20;72.10;;;;;;5041931;28;20042;-67
2021/01/31 02:04:31;;;;;;;23.67;12.77;;;2.20;72.10;;;;;;5017343;28;20104;-67
2021/01/31 02:06:58;;;;;;;23.23;11.63;;;2.20;72.00;;;;;;5045148;28;20416;-66
2021/01/31 02:09:23;;;;;;;23.93;13.77;;;2.20;71.90;;;;;;5030122;28;20041;-66
2021/01/31 02:11:56;;;;;;;21.60;11.73;;;2.20;71.80;;;;;;5049543;28;20033;-66
2021/01/31 02:14:23;;;;;;;24.98;11.57;;;2.20;71.80;;;;;;5042698;28;20080;-74
2021/01/31 02:17:04;;;;;;;27.73;13.30;;;2.10;71.90;;;;;;5043418;28;20044;-69
2021/01/31 02:19:44;;;;;;;25.33;12.73;;;2.10;71.90;;;;;;5039425;28;20098;-66
2021/01/31 02:22:32;;;;;;;22.20;11.20;;;2.20;71.80;;;;;;5033210;28;20852;-66
2021/01/31 02:25:26;;;;;;;22.87;12.40;;;2.10;71.60;;;;;;5028206;28;20461;-66
2021/01/31 02:28:09;;;;;;;21.73;12.05;;;2.10;71.80;;;;;;5036243;28;20029;-66
2021/01/31 02:31:32;;;;;;;25.15;12.73;;;2.10;71.80;;;;;;5048915;28;20456;-66
2021/01/31 02:34:16;;;;;;;23.33;12.47;;;2.10;72.00;;;;;;4964800;28;20055;-66
2021/01/31 02:37:17;;;;;;;24.03;12.53;;;2.00;72.00;;;;;;4941482;28;20931;-67
2021/01/31 02:40:04;;;;;;;22.13;13.13;;;2.00;71.90;;;;;;5034302;28;20090;-66
2021/01/31 02:42:39;;;;;;;25.50;14.10;;;2.00;71.90;;;;;;5034128;28;20440;-69
2021/01/31 02:45:31;;;;;;;25.27;12.63;;;2.00;72.00;;;;;;5036490;28;20025;-66
2021/01/31 02:47:59;;;;;;;23.90;13.40;;;2.00;72.00;;;;;;5042357;28;20532;-72
2021/01/31 02:50:29;;;;;;;24.73;12.93;;;2.00;72.00;;;;;;5023293;28;20360;-69
2021/01/31 02:53:16;;;;;;;22.50;12.33;;;2.00;72.00;;;;;;5034948;28;20034;-67
2021/01/31 02:55:53;;;;;;;24.03;12.77;;;2.00;71.90;;;;;;5040605;28;20028;-66
2021/01/31 02:58:23;;;;;;;24.37;11.37;;;2.00;72.00;;;;;;5046840;28;20040;-66
2021/01/31 03:00:52;;;;;;;22.07;11.03;;;1.90;72.00;;;;;;5028412;28;20093;-67
2021/01/31 03:03:39;;;;;;;23.63;13.00;;;1.90;72.10;;;;;;5036064;28;20030;-71
2021/01/31 03:06:12;;;;;;;23.30;13.37;;;1.90;72.00;;;;;;5047125;28;20025;-67
2021/01/31 03:08:47;;;;;;;25.17;13.20;;;1.90;72.00;;;;;;5016198;28;20655;-66
2021/01/31 03:11:37;;;;;;;25.67;12.23;;;1.90;71.90;;;;;;5044311;28;20032;-66
2021/01/31 03:14:09;;;;;;;26.03;12.90;;;1.90;72.00;;;;;;5043355;28;20054;-67
2021/01/31 03:17:04;;;;;;;21.13;12.10;;;1.90;72.20;;;;;;5044692;28;20049;-67
2021/01/31 03:19:56;;;;;;;24.37;11.73;;;1.90;72.20;;;;;;5028536;28;20037;-66
2021/01/31 03:22:45;;;;;;;19.50;10.67;;;1.90;72.10;;;;;;5023714;28;20033;-66
2021/01/31 03:25:17;;;;;;;21.50;11.63;;;1.90;72.10;;;;;;5040440;28;20137;-66
2021/01/31 03:27:43;;;;;;;21.83;11.13;;;1.90;72.10;;;;;;5046958;28;20025;-66
2021/01/31 03:30:12;;;;;;;24.00;13.27;;;1.90;72.00;;;;;;5046156;28;20181;-66
2021/01/31 03:32:40;;;;;;;23.83;13.93;;;1.90;72.10;;;;;;5026279;28;20025;-66
2021/01/31 03:35:13;;;;;;;24.73;12.50;;;1.90;72.10;;;;;;5039299;28;20038;-66
2021/01/31 03:37:48;;;;;;;24.33;11.23;;;1.90;72.20;;;;;;5040064;28;20025;-66
2021/01/31 03:40:16;;;;;;;23.60;12.33;;;1.90;72.10;;;;;;5043324;28;20047;-66
2021/01/31 03:42:45;;;;;;;22.47;11.83;;;1.60;71.90;;;;;;5034746;28;20060;-66
2021/01/31 03:45:13;;;;;;;23.90;13.33;;;1.90;72.10;;;;;;5039077;28;20036;-66
2021/01/31 03:47:50;;;;;;;23.03;12.03;;;1.80;72.10;;;;;;5046526;28;20033;-66
2021/01/31 03:50:16;;;;;;;25.00;14.27;;;1.80;72.30;;;;;;5020504;28;20722;-66
2021/01/31 03:52:42;;;;;;;23.50;12.70;;;1.80;72.40;;;;;;5027169;28;20033;-66
2021/01/31 03:55:08;;;;;;;23.83;11.13;;;1.80;72.40;;;;;;5037032;28;20037;-69
2021/01/31 03:57:47;;;;;;;21.30;10.77;;;1.80;72.40;;;;;;5023824;28;20030;-66
2021/01/31 04:00:22;;;;;;;24.20;12.17;;;1.80;72.30;;;;;;5044926;28;20032;-68
2021/01/31 04:02:55;;;;;;;24.53;12.63;;;1.80;72.40;;;;;;5039903;28;20076;-66
2021/01/31 04:05:21;;;;;;;24.60;13.48;;;1.80;72.40;;;;;;5050925;28;20040;-66
2021/01/31 04:07:51;;;;;;;27.03;14.60;;;1.70;72.40;;;;;;5043113;28;20033;-66
2021/01/31 04:10:17;;;;;;;22.87;11.43;;;1.80;72.50;;;;;;5044535;28;20509;-66
2021/01/31 04:12:48;;;;;;;25.17;12.87;;;1.70;72.50;;;;;;5049215;28;20045;-66
2021/01/31 04:15:31;;;;;;;23.37;12.77;;;1.70;72.50;;;;;;5040358;28;20420;-66
2021/01/31 04:17:57;;;;;;;25.08;12.43;;;1.70;72.40;;;;;;5045308;28;20033;-68
2021/01/31 04:20:23;;;;;;;23.07;12.43;;;1.70;72.50;;;;;;5042093;28;20037;-66
2021/01/31 04:22:48;;;;;;;26.93;12.10;;;1.70;72.50;;;;;;5047464;28;20044;-66
2021/01/31 04:25:15;;;;;;;24.67;12.90;;;1.70;72.50;;;;;;5035259;28;20044;-66
2021/01/31 04:27:40;;;;;;;24.87;12.93;;;1.70;72.50;;;;;;5044711;28;20126;-66
2021/01/31 04:30:08;;;;;;;23.77;13.40;;;1.70;72.50;;;;;;5045152;28;20067;-67
2021/01/31 04:32:35;;;;;;;22.67;12.33;;;1.60;72.50;;;;;;5046473;28;20025;-66
2021/01/31 04:35:01;;;;;;;26.23;12.63;;;1.70;72.60;;;;;;5039504;28;20033;-67
2021/01/31 04:37:27;;;;;;;20.97;10.80;;;1.70;72.70;;;;;;5029087;28;20099;-66
2021/01/31 04:39:52;;;;;;;23.00;12.03;;;1.60;72.60;;;;;;5049668;28;20041;-68
2021/01/31 04:42:19;;;;;;;22.33;11.77;;;1.60;72.60;;;;;;5051227;28;20071;-66
2021/01/31 04:44:47;;;;;;;22.30;12.27;;;1.60;72.70;;;;;;5036965;28;20116;-66
2021/01/31 04:47:23;;;;;;;23.63;13.20;;;1.60;72.70;;;;;;5046813;28;20029;-66
2021/01/31 04:50:09;;;;;;;23.97;11.93;;;1.60;72.70;;;;;;5039872;28;20043;-67
2021/01/31 04:52:58;;;;;;;23.50;12.50;;;1.60;72.70;;;;;;5035663;28;20024;-66
2021/01/31 04:55:36;;;;;;;24.03;13.00;;;1.60;72.80;;;;;;5034004;28;21022;-66
2021/01/31 04:58:13;;;;;;;21.83;11.47;;;1.60;72.80;;;;;;5049341;28;20017;-67
2021/01/31 05:01:04;;;;;;;23.37;12.37;;;1.60;72.80;;;;;;5041739;28;20490;-67
2021/01/31 05:03:33;;;;;;;21.23;11.50;;;1.60;72.90;;;;;;5032526;28;20028;-70
2021/01/31 05:06:07;;;;;;;23.40;11.40;;;1.60;72.70;;;;;;5039279;28;20040;-67
2021/01/31 05:08:33;;;;;;;24.43;13.17;;;1.60;72.70;;;;;;5048160;28;20056;-68
2021/01/31 05:11:16;;;;;;;24.53;11.60;;;1.60;72.80;;;;;;5048544;28;20398;-67
2021/01/31 05:13:53;;;;;;;23.73;13.57;;;1.60;72.90;;;;;;5038792;28;20049;-67
2021/01/31 05:16:19;;;;;;;21.00;10.97;;;1.60;72.80;;;;;;5047353;28;20037;-66
2021/01/31 05:18:47;;;;;;;21.93;11.07;;;1.60;72.80;;;;;;5030073;28;20044;-67
2021/01/31 05:21:18;;;;;;;22.53;11.37;;;1.60;72.80;;;;;;5036700;28;20049;-66
2021/01/31 05:23:49;;;;;;;23.20;11.73;;;1.60;72.80;;;;;;5023378;28;20021;-69
2021/01/31 05:26:17;;;;;;;23.13;12.70;;;1.60;72.80;;;;;;5046188;28;20474;-67
2021/01/31 05:28:50;;;;;;;22.80;12.77;;;1.60;72.80;;;;;;5045066;28;20032;-67
2021/01/31 05:31:18;;;;;;;21.77;11.82;;;1.50;72.80;;;;;;5040587;28;20028;-66
2021/01/31 05:33:56;;;;;;;24.30;13.20;;;1.50;72.80;;;;;;5047058;28;20037;-66
2021/01/31 05:36:25;;;;;;;25.90;13.53;;;1.40;72.90;;;;;;5048452;28;20036;-68
2021/01/31 05:38:52;;;;;;;25.23;12.90;;;1.50;73.10;;;;;;5031548;28;20299;-67
2021/01/31 05:41:26;;;;;;;20.13;11.80;;;1.40;73.10;;;;;;5037318;28;20260;-73
2021/01/31 05:44:08;;;;;;;25.53;13.60;;;1.50;73.00;;;;;;5050062;28;20037;-66
2021/01/31 05:46:42;;;;;;;21.80;12.20;;;1.40;72.90;;;;;;5034295;28;20121;-71
2021/01/31 05:49:39;;;;;;;23.98;12.48;;;1.50;72.90;;;;;;5027149;28;20033;-73
2021/01/31 05:52:21;;;;;;;23.27;10.90;;;1.40;72.80;;;;;;5035092;28;20084;-71
2021/01/31 05:54:51;;;;;;;24.77;12.23;;;1.40;72.70;;;;;;5022903;28;20102;-67
2021/01/31 05:57:43;;;;;;;25.83;13.90;;;1.40;72.80;;;;;;5044569;28;20387;-66
2021/01/31 06:00:31;;;;;;;23.63;12.17;;;1.40;73.00;;;;;;5020530;28;20115;-66
2021/01/31 06:03:05;;;;;;;24.37;12.97;;;1.30;73.00;;;;;;5027959;28;20037;-67
2021/01/31 06:05:32;;;;;;;;;;;1.40;73.60;;;;;;5044316;28;20026;-68
2021/01/31 06:08:28;;;;;;;22.33;12.50;;;1.30;72.90;;;;;;5030717;28;19912;-65
2021/01/31 06:11:04;;;;;;;22.13;11.27;;;1.30;72.80;;;;;;5036165;28;20045;-67
2021/01/31 06:13:32;;;;;;;19.93;10.07;;;1.40;72.80;;;;;;5047938;28;20567;-65
2021/01/31 06:16:00;;;;;;;20.30;11.10;;;1.40;72.70;;;;;;5046381;28;20489;-71
2021/01/31 06:18:39;;;;;;;24.17;12.73;;;1.50;72.50;;;;;;5048114;28;20155;-69
2021/01/31 06:21:14;;;;;;;21.47;12.20;;;1.50;72.40;;;;;;5047115;28;20495;-67
2021/01/31 06:23:50;;;;;;;24.83;13.10;;;1.50;72.30;;;;;;5033608;28;20026;-66
2021/01/31 06:26:27;;;;;;;22.90;12.93;;;1.40;72.40;;;;;;5045477;28;20482;-65
2021/01/31 06:29:03;;;;;;;22.87;11.77;;;1.40;72.50;;;;;;5042968;28;20037;-67
2021/01/31 06:31:45;;;;;;;23.33;11.80;;;2.10;73.00;;;;;;5039730;28;20022;-65
2021/01/31 06:34:12;;;;;;;24.17;11.63;;;1.40;72.60;;;;;;5031819;28;20037;-65
2021/01/31 06:36:56;;;;;;;24.00;12.23;;;1.40;72.70;;;;;;5028168;28;20036;-65
2021/01/31 06:39:49;;;;;;;27.33;14.27;;;1.30;72.60;;;;;;5030561;28;20136;-65
2021/01/31 06:42:43;;;;;;;22.90;12.82;;;1.30;72.70;;;;;;5035122;28;20029;-67
2021/01/31 06:45:35;;;;;;;22.58;12.20;;;1.30;72.80;;;;;;5038740;28;20059;-65
2021/01/31 06:48:08;;;;;;;27.20;13.90;;;1.20;72.80;;;;;;5044090;28;20326;-66
2021/01/31 06:50:39;;;;;;;23.33;12.13;;;1.20;72.90;;;;;;5046644;28;20029;-67
2021/01/31 06:53:15;;;;;;;26.17;13.27;;;1.20;72.90;;;;;;5032167;28;20046;-69
2021/01/31 06:55:58;;;;;;;24.03;11.93;;;1.20;72.90;;;;;;5041934;28;20018;-66
2021/01/31 06:58:35;;;;;;;24.83;14.07;;;1.20;73.00;;;;;;5014834;28;20505;-67
2021/01/31 07:01:07;;;;;;;24.23;11.57;;;1.20;72.90;;;;;;5035399;28;20030;-66
2021/01/31 07:04:16;;;;;;;26.43;12.60;;;1.20;72.90;;;;;;5041388;28;20490;-66
2021/01/31 07:07:05;;;;;;;25.87;11.33;;;1.20;72.80;;;;;;5039150;28;20454;-67
2021/01/31 07:10:04;;;;;;;22.47;12.10;;;1.20;72.70;;;;;;5043516;28;20036;-67
2021/01/31 07:13:07;;;;;;;25.53;12.80;;;1.20;72.80;;;;;;5037531;28;20041;-67
2021/01/31 07:15:51;;;;;;;25.03;13.80;;;1.20;72.90;;;;;;5048662;28;20486;-66
2021/01/31 07:18:17;;;;;;;;;;;1.30;73.50;;;;;;5053669;28;20029;-68
2021/01/31 07:20:47;;;;;;;27.60;12.97;;;1.10;73.00;;;;;;5041570;28;19924;-69
2021/01/31 07:23:32;;;;;;;24.83;12.77;;;1.00;73.10;;;;;;5028423;28;20029;-67
2021/01/31 07:26:23;;;;;;;24.23;12.27;;;1.10;73.30;;;;;;5047583;28;20136;-66
2021/01/31 07:28:53;;;;;;;24.83;13.33;;;1.00;73.30;;;;;;5034905;28;20064;-66
2021/01/31 07:31:24;;;;;;;25.53;12.27;;;1.10;73.30;;;;;;5045968;28;20397;-67
2021/01/31 07:33:59;;;;;;;27.23;13.93;;;1.10;73.30;;;;;;5025484;28;20044;-66
2021/01/31 07:36:35;;;;;;;22.47;12.00;;;1.10;73.20;;;;;;5049594;28;20108;-65
2021/01/31 07:39:09;;;;;;;23.87;13.17;;;1.10;73.20;;;;;;5026443;28;20064;-66
2021/01/31 07:41:49;;;;;;;27.58;15.25;;;1.20;73.10;;;;;;5025055;28;20090;-66
2021/01/31 07:44:18;;;;;;;27.50;13.23;;;1.20;72.80;;;;;;5016196;28;20025;-70
2021/01/31 07:46:43;;;;;;;27.87;14.70;;;1.30;72.70;;;;;;5038881;28;20056;-66
2021/01/31 07:49:09;;;;;;;27.33;13.33;;;1.20;72.70;;;;;;5045788;28;20092;-67
2021/01/31 07:51:38;;;;;;;27.53;13.43;;;1.30;72.70;;;;;;5018519;28;20110;-66
2021/01/31 07:54:25;;;;;;;22.70;12.40;;;1.30;72.60;;;;;;5036970;28;20526;-67
2021/01/31 07:56:53;;;;;;;23.87;13.23;;;1.30;72.40;;;;;;5031480;28;20026;-69
2021/01/31 07:59:18;;;;;;;25.77;12.27;;;1.40;72.40;;;;;;5050538;28;20024;-67
2021/01/31 08:01:52;;;;;;;27.77;14.33;;;1.40;72.30;;;;;;5036199;28;20380;-67
2021/01/31 08:04:18;;;;;;;27.40;14.50;;;1.40;72.40;;;;;;5031973;28;20104;-71
2021/01/31 08:06:49;;;;;;;24.17;12.53;;;1.40;72.40;;;;;;5038069;28;20492;-68
2021/01/31 08:09:24;;;;;;;22.80;12.63;;;1.50;72.40;;;;;;5020061;28;20466;-70
2021/01/31 08:11:53;;;;;;;22.23;12.03;;;1.50;72.10;;;;;;5046467;28;20063;-67
2021/01/31 08:14:56;;;;;;;24.97;11.90;;;1.60;72.10;;;;;;5021649;28;20185;-67
2021/01/31 08:17:52;;;;;;;26.17;13.70;;;1.70;71.90;;;;;;5042701;28;20025;-68
2021/01/31 08:20:26;;;;;;;28.73;14.53;;;1.70;71.70;;;;;;5034713;28;20057;-67
2021/01/31 08:23:05;;;;;;;23.27;12.17;;;1.70;71.70;;;;;;5048272;28;20118;-67
2021/01/31 08:25:58;;;;;;;23.53;11.60;;;1.80;71.70;;;;;;5046585;28;20152;-67
2021/01/31 08:28:30;;;;;;;21.20;11.73;;;1.90;71.50;;;;;;5043088;28;20036;-69
2021/01/31 08:31:01;;;;;;;23.47;12.20;;;2.20;71.10;;;;;;5050348;28;20463;-67
2021/01/31 08:33:32;;;;;;;27.67;14.07;;;2.60;71.00;;;;;;5036774;28;20036;-71
2021/01/31 08:36:21;;;;;;;20.10;11.37;;;3.20;69.50;;;;;;5048602;28;20154;-67
2021/01/31 08:38:51;;;;;;;22.47;11.97;;;3.70;68.30;;;;;;5032762;28;20045;-67
2021/01/31 08:41:26;;;;;;;24.70;13.40;;;4.90;65.80;;;;;;5046485;28;20052;-68
2021/01/31 08:44:19;;;;;;;20.40;11.37;;;6.40;62.30;;;;;;5041511;28;20016;-67
2021/01/31 08:46:57;;;;;;;17.33;9.43;;;8.40;57.40;;;;;;5040430;28;20108;-74
2021/01/31 08:49:22;;;;;;;19.23;10.87;;;9.20;52.80;;;;;;5036819;28;20021;-69
2021/01/31 08:52:07;;;;;;;18.87;11.07;;;9.30;51.50;;;;;;5040265;28;20533;-69
2021/01/31 08:54:32;;;;;;;17.93;10.47;;;9.50;51.40;;;;;;5040475;28;20037;-68
2021/01/31 08:57:02;;;;;;;19.50;10.80;;;10.00;50.10;;;;;;5018860;28;20106;-77
2021/01/31 08:59:32;;;;;;;19.85;10.90;;;10.10;47.80;;;;;;5023157;28;20442;-68
2021/01/31 09:02:19;;;;;;;17.83;12.13;;;10.00;48.00;;;;;;5047954;28;20040;-70
2021/01/31 09:04:48;;;;;;;17.52;10.77;;;9.90;46.60;;;;;;5039111;28;20147;-72
2021/01/31 09:07:40;;;;;;;18.58;11.25;;;9.60;47.40;;;;;;5032025;28;20029;-70
2021/01/31 09:10:18;;;;;;;16.88;10.05;;;9.20;48.00;;;;;;5028296;28;20041;-68
2021/01/31 09:12:44;;;;;;;18.27;10.73;;;9.10;48.60;;;;;;5034324;28;20037;-73
2021/01/31 09:15:31;;;;;;;19.77;11.23;;;8.90;48.50;;;;;;5037437;28;20553;-68
2021/01/31 09:18:25;;;;;;;17.63;10.07;;;8.50;49.10;;;;;;5038096;28;20029;-69
2021/01/31 09:20:51;;;;;;;18.08;11.15;;;7.60;50.10;;;;;;5039789;28;20049;-69
2021/01/31 09:23:33;;;;;;;19.27;10.60;;;6.80;51.80;;;;;;5035732;28;20028;-76
2021/01/31 09:25:58;;;;;;;19.67;10.37;;;6.20;53.60;;;;;;5036507;28;20022;-68
2021/01/31 09:28:26;;;;;;;20.03;11.50;;;5.80;55.00;;;;;;5043792;28;20041;-72
2021/01/31 09:30:59;;;;;;;19.37;11.43;;;5.40;55.80;;;;;;5028110;28;20033;-71
2021/01/31 09:33:40;;;;;;;16.48;10.00;;;5.10;56.70;;;;;;5030283;28;20378;-75
2021/01/31 09:36:15;;;;;;;21.63;11.73;;;4.90;57.50;;;;;;5048756;28;20452;-67
2021/01/31 09:38:41;;;;;;;21.37;12.60;;;4.60;58.30;;;;;;5041727;28;20111;-68
2021/01/31 09:41:07;;;;;;;19.53;11.60;;;4.50;59.10;;;;;;5036203;28;20285;-68
2021/01/31 09:43:34;;;;;;;21.03;12.60;;;4.50;59.40;;;;;;5035609;28;20082;-69
2021/01/31 09:46:02;;;;;;;20.77;11.70;;;4.40;59.50;;;;;;5035092;28;20056;-76
2021/01/31 09:48:31;;;;;;;23.60;13.43;;;4.30;59.90;;;;;;5036821;28;20359;-69
2021/01/31 09:51:00;;;;;;;21.07;11.37;;;4.10;60.50;;;;;;5047363;28;20032;-68
2021/01/31 09:53:38;;;;;;;21.00;11.43;;;4.00;61.00;;;;;;5049875;28;20029;-68
2021/01/31 09:56:32;;;;;;;20.83;11.03;;;4.10;61.20;;;;;;5036535;28;20039;-67
2021/01/31 09:58:59;;;;;;;22.42;11.43;;;4.20;60.80;;;;;;5030998;28;20558;-68
2021/01/31 10:01:27;;;;;;;22.37;11.37;;;4.30;60.90;;;;;;5001706;28;20037;-70
2021/01/31 10:04:01;;;;;;;28.80;13.53;;;4.30;60.70;;;;;;5020343;28;20083;-68
2021/01/31 10:06:29;;;;;;;;;;;4.30;61.30;;;;;;5049172;28;20166;-68
2021/01/31 10:09:01;;;;;;;22.27;12.03;;;4.30;61.20;;;;;;5039071;28;19908;-67
2021/01/31 10:11:41;;;;;;;25.13;12.90;;;4.30;61.20;;;;;;5049118;28;20064;-68
2021/01/31 10:14:10;;;;;;;22.87;12.10;;;4.10;61.40;;;;;;5018264;28;20414;-68
2021/01/31 10:16:40;;;;;;;23.00;12.83;;;4.00;61.90;;;;;;5037439;28;20033;-68
2021/01/31 10:19:23;;;;;;;21.60;12.23;;;3.90;62.30;;;;;;5041952;28;20041;-67
2021/01/31 10:21:58;;;;;;;22.93;11.50;;;3.90;62.30;;;;;;5026169;28;20446;-68
2021/01/31 10:24:28;;;;;;;23.70;13.30;;;3.90;62.50;;;;;;5044833;28;20771;-67
2021/01/31 10:27:24;;;;;;;23.50;13.30;;;3.90;62.50;;;;;;5041512;28;20045;-70
2021/01/31 10:29:51;;;;;;;26.27;15.10;;;3.80;62.90;;;;;;5027048;28;20029;-67
2021/01/31 10:32:34;;;;;;;23.60;12.33;;;3.70;63.30;;;;;;5038106;28;20108;-69
2021/01/31 10:35:02;;;;;;;18.50;10.47;;;3.60;63.70;;;;;;5018950;28;20463;-68
2021/01/31 10:37:36;;;;;;;23.47;12.83;;;3.70;64.00;;;;;;5048721;28;20367;-67
2021/01/31 10:40:04;;;;;;;23.60;13.83;;;3.80;64.00;;;;;;5042658;28;20033;-68
2021/01/31 10:42:30;;;;;;;23.07;12.10;;;3.80;63.70;;;;;;5029141;28;20045;-69
2021/01/31 10:45:21;;;;;;;25.77;13.93;;;3.80;63.70;;;;;;5030532;28;20036;-69
2021/01/31 10:47:48;;;;;;;21.20;12.33;;;3.80;63.80;;;;;;5036647;28;20117;-69
2021/01/31 10:50:19;;;;;;;24.80;13.67;;;3.90;63.70;;;;;;5047806;28;20033;-69
2021/01/31 10:52:46;;;;;;;21.60;11.47;;;4.00;63.60;;;;;;5043729;28;20037;-68
2021/01/31 10:55:12;;;;;;;22.50;12.83;;;4.00;63.50;;;;;;5032121;28;20040;-68
2021/01/31 10:57:38;;;;;;;24.60;14.53;;;4.00;63.50;;;;;;5033405;28;20083;-68
2021/01/31 11:00:09;;;;;;;22.07;12.40;;;3.90;63.70;;;;;;5049493;28;20455;-68
2021/01/31 11:02:36;;;;;;;24.07;12.43;;;3.90;64.00;;;;;;5048985;28;20055;-67
2021/01/31 11:05:04;;;;;;;23.23;12.37;;;4.00;64.00;;;;;;5042468;28;20032;-67
2021/01/31 11:07:31;;;;;;;21.10;11.83;;;4.20;63.70;;;;;;5040119;28;20045;-66
2021/01/31 11:09:57;;;;;;;25.63;13.73;;;4.20;63.60;;;;;;5047065;28;20025;-67
2021/01/31 11:12:22;;;;;;;25.57;14.03;;;4.20;63.70;;;;;;5045359;28;20453;-66
2021/01/31 11:14:48;;;;;;;24.40;13.60;;;4.20;63.70;;;;;;5052524;28;20059;-65
2021/01/31 11:17:14;;;;;;;21.20;12.70;;;4.20;63.70;;;;;;5064313;28;20028;-66
2021/01/31 11:19:39;;;;;;;22.53;13.67;;;4.20;63.70;;;;;;5066257;28;20501;-66
2021/01/31 11:22:05;;;;;;;24.60;12.83;;;4.30;63.70;;;;;;5062643;28;20065;-67
2021/01/31 11:24:31;;;;;;;21.47;12.20;;;4.20;63.70;;;;;;5062811;28;20055;-66
2021/01/31 11:26:56;;;;;;;21.03;11.57;;;4.20;63.90;;;;;;5062170;28;20451;-74
2021/01/31 11:29:22;;;;;;;24.00;13.97;;;4.20;64.00;;;;;;5067136;28;20115;-67
2021/01/31 11:31:47;;;;;;;26.27;13.63;;;4.20;64.20;;;;;;5056429;28;20032;-66
2021/01/31 11:34:13;;;;;;;21.60;13.40;;;4.40;64.00;;;;;;5052610;28;20032;-72
2021/01/31 11:36:39;;;;;;;25.43;13.23;;;4.80;63.10;;;;;;5052388;28;20033;-70
2021/01/31 11:39:07;;;;;;;26.07;13.50;;;5.90;61.30;;;;;;5063594;28;20122;-66
2021/01/31 11:41:35;;;;;;;23.53;12.40;;;7.60;58.10;;;;;;5061164;28;20035;-68
2021/01/31 11:44:01;;;;;;;23.17;12.93;;;9.20;53.20;;;;;;5070170;28;20036;-68
2021/01/31 11:46:27;;;;;;;20.63;12.80;;;11.00;49.80;;;;;;5050871;28;20033;-68
2021/01/31 11:48:52;;;;;;;22.60;12.77;;;12.10;45.90;;;;;;5053671;28;20036;-68
2021/01/31 11:51:18;;;;;;;22.63;13.82;;;12.70;44.60;;;;;;5032900;28;20495;-68
2021/01/31 11:53:44;;;;;;;16.67;10.65;;;12.50;44.30;;;;;;5078179;28;20032;-69
2021/01/31 11:56:10;;;;;;;19.02;11.57;;;11.80;45.30;;;;;;5059360;28;20071;-69
2021/01/31 11:58:35;;;;;;;19.90;12.18;;;10.80;46.30;;;;;;5065982;28;20142;-67
2021/01/31 12:01:01;;;;;;;19.05;10.43;;;9.70;48.00;;;;;;5070013;28;20068;-70
2021/01/31 12:03:27;;;;;;;20.15;12.05;;;8.70;49.50;;;;;;5062149;28;20483;-70
2021/01/31 12:05:52;;;;;;;18.02;11.57;;;8.00;51.40;;;;;;5069218;28;20033;-68
2021/01/31 12:08:18;;;;;;;18.03;10.77;;;7.40;53.10;;;;;;5071662;28;20335;-73
2021/01/31 12:10:43;;;;;;;21.17;13.33;;;7.00;54.40;;;;;;5057745;28;20037;-67
2021/01/31 12:13:09;;;;;;;19.33;11.40;;;6.50;55.50;;;;;;5053784;28;20052;-65
2021/01/31 12:15:34;;;;;;;19.17;10.80;;;6.30;56.50;;;;;;5050723;28;20348;-65
2021/01/31 12:18:00;;;;;;;19.57;10.67;;;6.10;57.10;;;;;;5045834;28;20037;-73
2021/01/31 12:20:26;;;;;;;26.77;13.27;;;6.10;57.60;;;;;;5045240;28;20038;-65
2021/01/31 12:22:51;;;;;;;19.03;11.73;;;6.00;57.90;;;;;;5032286;28;20395;-70
2021/01/31 12:25:18;;;;;;;19.60;12.00;;;5.90;58.50;;;;;;5032195;28;20032;-67
2021/01/31 12:27:51;;;;;;;18.37;10.20;;;5.80;58.80;;;;;;5032289;28;20064;-67
2021/01/31 12:30:20;;;;;;;16.53;11.00;;;5.80;59.10;;;;;;5046450;28;20028;-66
2021/01/31 12:32:46;;;;;;;17.60;10.30;;;5.80;59.00;;;;;;5038733;28;20766;-67
2021/01/31 12:35:11;;;;;;;20.43;10.60;;;5.80;59.20;;;;;;5032639;28;20040;-65
2021/01/31 12:37:37;;;;;;;20.03;11.57;;;5.90;59.30;;;;;;5052325;28;20063;-64
2021/01/31 12:40:05;;;;;;;19.47;10.63;;;5.90;59.30;;;;;;5032867;28;20467;-69
2021/01/31 12:42:30;;;;;;;17.90;10.63;;;5.90;59.40;;;;;;5051054;28;20037;-65
2021/01/31 12:44:56;;;;;;;18.83;11.10;;;6.00;59.50;;;;;;5051485;28;20029;-67
2021/01/31 12:47:22;;;;;;;17.50;9.83;;;6.10;59.40;;;;;;5037042;28;20064;-66
2021/01/31 12:49:47;;;;;;;19.63;10.50;;;6.20;59.20;;;;;;5030771;28;20033;-66
2021/01/31 12:52:13;;;;;;;19.87;12.67;;;6.30;59.10;;;;;;5031900;28;20499;-67
2021/01/31 12:54:39;;;;;;;18.47;9.60;;;6.40;59.00;;;;;;5033997;28;20537;-66
2021/01/31 12:57:05;;;;;;;20.03;10.73;;;6.50;58.20;;;;;;5031404;28;20464;-67
2021/01/31 12:59:31;;;;;;;16.10;10.13;;;6.50;57.70;;;;;;5013602;28;20036;-66
2021/01/31 13:01:57;;;;;;;17.37;9.50;;;6.40;57.80;;;;;;5038518;28;20465;-65
2021/01/31 13:04:22;;;;;;;16.27;10.37;;;6.30;58.10;;;;;;5048732;28;20550;-66
2021/01/31 13:06:48;;;;;;;17.70;10.83;;;6.20;58.30;;;;;;5033115;28;20108;-66